sensor_id;sensor_type;location;lat;lon;timestamp;pressure;altitude;pressure_sealevel;temperature;humidity
78309;BME280;67566;42.022;21.356;2023-11-19T00:02:19;98949.38;;;5.81;47.48
78309;BME280;67566;42.022;21.356;2023-11-19T00:04:44;98931.41;;;5.78;47.70
78309;BME280;67566;42.022;21.356;2023-11-19T00:07:10;98917.16;;;5.79;46.95
78309;BME280;67566;42.022;21.356;2023-11-19T00:09:38;98919.28;;;5.77;47.67
78309;BME280;67566;42.022;21.356;2023-11-19T00:12:06;98914.25;;;5.76;47.68
78309;BME280;67566;42.022;21.356;2023-11-19T00:14:32;98922.69;;;5.78;46.76
78309;BME280;67566;42.022;21.356;2023-11-19T00:16:57;98935.63;;;5.74;47.65
78309;BME280;67566;42.022;21.356;2023-11-19T00:19:23;98957.03;;;5.78;47.16
78309;BME280;67566;42.022;21.356;2023-11-19T00:21:48;98973.16;;;5.76;47.87
78309;BME280;67566;42.022;21.356;2023-11-19T00:24:13;98963.41;;;5.77;47.94
78309;BME280;67566;42.022;21.356;2023-11-19T00:26:42;98974.22;;;5.75;48.10
78309;BME280;67566;42.022;21.356;2023-11-19T00:29:07;98975.50;;;5.73;48.59
78309;BME280;67566;42.022;21.356;2023-11-19T00:31:33;98970.75;;;5.70;49.20
78309;BME280;67566;42.022;21.356;2023-11-19T00:33:59;98955.97;;;5.68;49.03
78309;BME280;67566;42.022;21.356;2023-11-19T00:36:24;98955.19;;;5.68;49.08
78309;BME280;67566;42.022;21.356;2023-11-19T00:38:51;98957.25;;;5.66;49.56
78309;BME280;67566;42.022;21.356;2023-11-19T00:41:18;98957.00;;;5.67;48.91
78309;BME280;67566;42.022;21.356;2023-11-19T00:43:44;98960.72;;;5.66;48.76
78309;BME280;67566;42.022;21.356;2023-11-19T00:46:09;98963.34;;;5.66;48.42
78309;BME280;67566;42.022;21.356;2023-11-19T00:48:36;98968.38;;;5.68;49.03
78309;BME280;67566;42.022;21.356;2023-11-19T00:51:02;98990.78;;;5.60;49.56
78309;BME280;67566;42.022;21.356;2023-11-19T00:53:29;98980.50;;;5.64;48.95
78309;BME280;67566;42.022;21.356;2023-11-19T00:55:55;98983.38;;;5.57;49.38
78309;BME280;67566;42.022;21.356;2023-11-19T00:58:20;98967.81;;;5.61;49.72
78309;BME280;67566;42.022;21.356;2023-11-19T01:00:46;98975.72;;;5.56;49.71
78309;BME280;67566;42.022;21.356;2023-11-19T01:03:11;98965.16;;;5.56;49.59
78309;BME280;67566;42.022;21.356;2023-11-19T01:05:37;98955.63;;;5.49;50.00
78309;BME280;67566;42.022;21.356;2023-11-19T01:08:02;98985.75;;;5.54;50.35
78309;BME280;67566;42.022;21.356;2023-11-19T01:10:30;98993.63;;;5.48;50.52
78309;BME280;67566;42.022;21.356;2023-11-19T01:12:55;98999.97;;;5.47;49.82
78309;BME280;67566;42.022;21.356;2023-11-19T01:15:20;98991.81;;;5.49;50.32
78309;BME280;67566;42.022;21.356;2023-11-19T01:17:46;98984.94;;;5.48;50.81
78309;BME280;67566;42.022;21.356;2023-11-19T01:20:11;98989.16;;;5.44;51.67
78309;BME280;67566;42.022;21.356;2023-11-19T01:22:39;98988.63;;;5.42;51.49
78309;BME280;67566;42.022;21.356;2023-11-19T01:25:05;98987.25;;;5.39;51.55
78309;BME280;67566;42.022;21.356;2023-11-19T01:27:31;98981.44;;;5.37;51.35
78309;BME280;67566;42.022;21.356;2023-11-19T01:29:56;98991.75;;;5.39;51.03
78309;BME280;67566;42.022;21.356;2023-11-19T01:32:22;98992.31;;;5.46;50.48
78309;BME280;67566;42.022;21.356;2023-11-19T01:34:49;98998.38;;;5.46;51.00
78309;BME280;67566;42.022;21.356;2023-11-19T01:37:15;99007.38;;;5.45;50.70
78309;BME280;67566;42.022;21.356;2023-11-19T01:39:43;99003.13;;;5.44;51.28
78309;BME280;67566;42.022;21.356;2023-11-19T01:42:10;99002.06;;;5.40;50.86
78309;BME280;67566;42.022;21.356;2023-11-19T01:44:37;98990.97;;;5.43;50.92
78309;BME280;67566;42.022;21.356;2023-11-19T01:47:03;98990.69;;;5.40;51.27
78309;BME280;67566;42.022;21.356;2023-11-19T01:49:30;99003.88;;;5.40;51.45
78309;BME280;67566;42.022;21.356;2023-11-19T01:51:57;99017.63;;;5.37;52.03
78309;BME280;67566;42.022;21.356;2023-11-19T01:54:23;99004.41;;;5.37;51.80
78309;BME280;67566;42.022;21.356;2023-11-19T01:56:49;99006.25;;;5.36;51.63
78309;BME280;67566;42.022;21.356;2023-11-19T01:59:15;99010.50;;;5.37;50.87
78309;BME280;67566;42.022;21.356;2023-11-19T02:01:42;99014.72;;;5.38;52.02
78309;BME280;67566;42.022;21.356;2023-11-19T02:04:08;99018.91;;;5.34;52.03
78309;BME280;67566;42.022;21.356;2023-11-19T02:06:37;99019.69;;;5.35;51.98
78309;BME280;67566;42.022;21.356;2023-11-19T02:09:06;99018.91;;;5.34;52.30
78309;BME280;67566;42.022;21.356;2023-11-19T02:11:33;99018.38;;;5.32;52.35
78309;BME280;67566;42.022;21.356;2023-11-19T02:14:00;99026.06;;;5.34;52.18
78309;BME280;67566;42.022;21.356;2023-11-19T02:16:25;99021.31;;;5.36;52.29
78309;BME280;67566;42.022;21.356;2023-11-19T02:18:51;99015.78;;;5.37;52.15
78309;BME280;67566;42.022;21.356;2023-11-19T02:21:16;99026.88;;;5.39;52.58
78309;BME280;67566;42.022;21.356;2023-11-19T02:23:43;99023.44;;;5.39;52.00
78309;BME280;67566;42.022;21.356;2023-11-19T02:26:23;99015.25;;;5.35;52.80
78309;BME280;67566;42.022;21.356;2023-11-19T02:28:51;99002.81;;;5.36;52.55
78309;BME280;67566;42.022;21.356;2023-11-19T02:31:17;98990.38;;;5.31;53.00
78309;BME280;67566;42.022;21.356;2023-11-19T02:33:44;99007.81;;;5.32;52.99
78309;BME280;67566;42.022;21.356;2023-11-19T02:36:10;99007.03;;;5.32;52.68
78309;BME280;67566;42.022;21.356;2023-11-19T02:38:36;99015.47;;;5.28;53.20
78309;BME280;67566;42.022;21.356;2023-11-19T02:41:03;99014.66;;;5.28;53.60
78309;BME280;67566;42.022;21.356;2023-11-19T02:43:34;99030.25;;;5.29;52.87
78309;BME280;67566;42.022;21.356;2023-11-19T02:46:03;99032.63;;;5.26;53.43
78309;BME280;67566;42.022;21.356;2023-11-19T02:48:35;99034.44;;;5.25;53.82
78309;BME280;67566;42.022;21.356;2023-11-19T02:51:04;99016.22;;;5.24;53.93
78309;BME280;67566;42.022;21.356;2023-11-19T02:53:30;99026.78;;;5.24;53.63
78309;BME280;67566;42.022;21.356;2023-11-19T02:55:57;99021.25;;;5.25;51.83
78309;BME280;67566;42.022;21.356;2023-11-19T02:58:31;99008.59;;;5.33;51.82
78309;BME280;67566;42.022;21.356;2023-11-19T03:00:56;99013.31;;;5.25;53.13
78309;BME280;67566;42.022;21.356;2023-11-19T03:03:26;99010.44;;;5.27;52.63
78309;BME280;67566;42.022;21.356;2023-11-19T03:06:04;99017.53;;;5.21;53.71
78309;BME280;67566;42.022;21.356;2023-11-19T03:08:30;99025.91;;;5.13;53.43
78309;BME280;67566;42.022;21.356;2023-11-19T03:10:55;99029.00;;;5.05;53.51
78309;BME280;67566;42.022;21.356;2023-11-19T03:13:21;99026.63;;;4.98;53.65
78309;BME280;67566;42.022;21.356;2023-11-19T03:15:47;99016.81;;;4.94;53.16
78309;BME280;67566;42.022;21.356;2023-11-19T03:18:12;99019.44;;;4.94;51.90
78309;BME280;67566;42.022;21.356;2023-11-19T03:20:38;99013.66;;;4.97;50.88
78309;BME280;67566;42.022;21.356;2023-11-19T03:23:04;99012.09;;;5.01;51.19
78309;BME280;67566;42.022;21.356;2023-11-19T03:25:31;99027.72;;;5.07;51.50
78309;BME280;67566;42.022;21.356;2023-11-19T03:28:02;99029.84;;;5.05;50.04
78309;BME280;67566;42.022;21.356;2023-11-19T03:32:58;99029.88;;;5.10;50.56
78309;BME280;67566;42.022;21.356;2023-11-19T03:35:25;99030.38;;;5.07;50.45
78309;BME280;67566;42.022;21.356;2023-11-19T03:37:51;99028.75;;;5.06;50.34
78309;BME280;67566;42.022;21.356;2023-11-19T03:40:17;99029.84;;;5.05;50.28
78309;BME280;67566;42.022;21.356;2023-11-19T03:42:44;99031.88;;;4.98;51.02
78309;BME280;67566;42.022;21.356;2023-11-19T03:45:10;99017.09;;;4.97;50.38
78309;BME280;67566;42.022;21.356;2023-11-19T03:47:35;99018.13;;;4.96;50.60
78309;BME280;67566;42.022;21.356;2023-11-19T03:50:01;99029.50;;;4.97;50.55
78309;BME280;67566;42.022;21.356;2023-11-19T03:52:27;99048.75;;;4.97;50.61
78309;BME280;67566;42.022;21.356;2023-11-19T03:54:54;99059.84;;;4.99;50.75
78309;BME280;67566;42.022;21.356;2023-11-19T03:57:21;99053.25;;;4.97;50.61
78309;BME280;67566;42.022;21.356;2023-11-19T03:59:46;99049.50;;;4.92;50.69
78309;BME280;67566;42.022;21.356;2023-11-19T04:02:12;99037.13;;;4.93;50.36
78309;BME280;67566;42.022;21.356;2023-11-19T04:04:38;99047.13;;;4.91;51.17
78309;BME280;67566;42.022;21.356;2023-11-19T04:07:05;99045.53;;;4.90;51.31
78309;BME280;67566;42.022;21.356;2023-11-19T04:09:31;99039.97;;;4.86;50.84
78309;BME280;67566;42.022;21.356;2023-11-19T04:11:58;99053.94;;;4.87;51.40
78309;BME280;67566;42.022;21.356;2023-11-19T04:14:24;99062.13;;;4.85;51.46
78309;BME280;67566;42.022;21.356;2023-11-19T04:16:49;99063.19;;;4.84;50.59
78309;BME280;67566;42.022;21.356;2023-11-19T04:19:16;99069.28;;;4.90;50.94
78309;BME280;67566;42.022;21.356;2023-11-19T04:21:41;99066.66;;;4.90;50.50
78309;BME280;67566;42.022;21.356;2023-11-19T04:24:10;99067.47;;;4.96;50.77
78309;BME280;67566;42.022;21.356;2023-11-19T04:26:43;99077.50;;;4.94;50.87
78309;BME280;67566;42.022;21.356;2023-11-19T04:29:11;99058.25;;;4.93;50.37
78309;BME280;67566;42.022;21.356;2023-11-19T04:31:37;99046.91;;;4.98;50.86
78309;BME280;67566;42.022;21.356;2023-11-19T04:34:03;99055.06;;;4.91;50.96
78309;BME280;67566;42.022;21.356;2023-11-19T04:36:28;99058.19;;;4.88;50.85
78309;BME280;67566;42.022;21.356;2023-11-19T04:38:55;99057.91;;;4.84;52.07
78309;BME280;67566;42.022;21.356;2023-11-19T04:41:20;99057.59;;;4.81;51.74
78309;BME280;67566;42.022;21.356;2023-11-19T04:43:46;99057.34;;;4.82;51.38
78309;BME280;67566;42.022;21.356;2023-11-19T04:46:11;99047.88;;;4.86;51.46
78309;BME280;67566;42.022;21.356;2023-11-19T04:48:37;99038.84;;;4.77;51.47
78309;BME280;67566;42.022;21.356;2023-11-19T04:51:05;99047.06;;;4.81;51.91
78309;BME280;67566;42.022;21.356;2023-11-19T04:53:30;99049.91;;;4.74;51.87
78309;BME280;67566;42.022;21.356;2023-11-19T04:55:56;99041.44;;;4.72;52.01
78309;BME280;67566;42.022;21.356;2023-11-19T04:58:21;99048.53;;;4.71;52.01
78309;BME280;67566;42.022;21.356;2023-11-19T05:00:47;99047.75;;;4.71;52.19
78309;BME280;67566;42.022;21.356;2023-11-19T05:03:13;99042.72;;;4.69;52.20
78309;BME280;67566;42.022;21.356;2023-11-19T05:05:38;99055.31;;;4.62;52.49
78309;BME280;67566;42.022;21.356;2023-11-19T05:08:04;99055.28;;;4.57;53.01
78309;BME280;67566;42.022;21.356;2023-11-19T05:10:30;99056.34;;;4.56;53.21
78309;BME280;67566;42.022;21.356;2023-11-19T05:12:55;99051.56;;;4.53;53.70
78309;BME280;67566;42.022;21.356;2023-11-19T05:15:22;99051.78;;;4.51;53.71
78309;BME280;67566;42.022;21.356;2023-11-19T05:17:47;99054.69;;;4.50;53.54
78309;BME280;67566;42.022;21.356;2023-11-19T05:20:13;99055.97;;;4.47;54.24
78309;BME280;67566;42.022;21.356;2023-11-19T05:22:40;99049.34;;;4.45;54.67
78309;BME280;67566;42.022;21.356;2023-11-19T05:25:06;99051.69;;;4.41;55.27
78309;BME280;67566;42.022;21.356;2023-11-19T05:27:32;99060.13;;;4.43;54.95
78309;BME280;67566;42.022;21.356;2023-11-19T05:29:57;99055.63;;;4.39;55.39
78309;BME280;67566;42.022;21.356;2023-11-19T05:32:23;99061.94;;;4.38;55.51
78309;BME280;67566;42.022;21.356;2023-11-19T05:34:48;99061.09;;;4.32;55.47
78309;BME280;67566;42.022;21.356;2023-11-19T05:37:13;99066.84;;;4.29;55.74
78309;BME280;67566;42.022;21.356;2023-11-19T05:39:39;99066.78;;;4.24;56.49
78309;BME280;67566;42.022;21.356;2023-11-19T05:42:05;99068.34;;;4.20;56.69
78309;BME280;67566;42.022;21.356;2023-11-19T05:44:30;99069.84;;;4.15;57.07
78309;BME280;67566;42.022;21.356;2023-11-19T05:46:56;99068.75;;;4.11;57.21
78309;BME280;67566;42.022;21.356;2023-11-19T05:49:21;99068.16;;;4.04;57.01
78309;BME280;67566;42.022;21.356;2023-11-19T05:51:47;99081.63;;;3.86;56.99
78309;BME280;67566;42.022;21.356;2023-11-19T05:54:12;99080.28;;;3.83;56.70
78309;BME280;67566;42.022;21.356;2023-11-19T05:56:39;99083.16;;;3.82;57.76
78309;BME280;67566;42.022;21.356;2023-11-19T05:59:04;99088.66;;;3.80;57.64
78309;BME280;67566;42.022;21.356;2023-11-19T06:01:34;99089.16;;;3.77;57.08
78309;BME280;67566;42.022;21.356;2023-11-19T06:04:00;99093.06;;;3.74;56.58
78309;BME280;67566;42.022;21.356;2023-11-19T06:06:26;99095.47;;;3.76;56.59
78309;BME280;67566;42.022;21.356;2023-11-19T06:08:52;99092.31;;;3.79;57.12
78309;BME280;67566;42.022;21.356;2023-11-19T06:11:17;99103.16;;;3.83;57.44
78309;BME280;67566;42.022;21.356;2023-11-19T06:13:45;99095.34;;;3.88;57.98
78309;BME280;67566;42.022;21.356;2023-11-19T06:16:11;99094.38;;;3.94;57.70
78309;BME280;67566;42.022;21.356;2023-11-19T06:18:37;99099.53;;;4.06;57.64
78309;BME280;67566;42.022;21.356;2023-11-19T06:21:03;99099.59;;;4.11;57.47
78309;BME280;67566;42.022;21.356;2023-11-19T06:23:28;99093.50;;;4.10;57.78
78309;BME280;67566;42.022;21.356;2023-11-19T06:25:54;99093.56;;;4.15;57.83
78309;BME280;67566;42.022;21.356;2023-11-19T06:28:19;99102.84;;;4.18;57.05
78309;BME280;67566;42.022;21.356;2023-11-19T06:30:45;99093.44;;;4.27;57.05
78309;BME280;67566;42.022;21.356;2023-11-19T06:33:14;99097.28;;;4.42;57.42
78309;BME280;67566;42.022;21.356;2023-11-19T06:35:39;99099.56;;;4.55;56.73
78309;BME280;67566;42.022;21.356;2023-11-19T06:38:05;99094.44;;;4.70;55.97
78309;BME280;67566;42.022;21.356;2023-11-19T06:40:32;99099.28;;;4.84;55.92
78309;BME280;67566;42.022;21.356;2023-11-19T06:42:58;99107.59;;;4.98;55.50
78309;BME280;67566;42.022;21.356;2023-11-19T06:45:23;99101.13;;;5.10;54.78
78309;BME280;67566;42.022;21.356;2023-11-19T06:47:49;99105.19;;;5.23;54.37
78309;BME280;67566;42.022;21.356;2023-11-19T06:50:15;99101.00;;;5.33;54.50
78309;BME280;67566;42.022;21.356;2023-11-19T06:52:41;99101.88;;;5.43;53.70
78309;BME280;67566;42.022;21.356;2023-11-19T06:55:07;99096.41;;;5.55;52.96
78309;BME280;67566;42.022;21.356;2023-11-19T06:57:32;99090.41;;;5.65;53.14
78309;BME280;67566;42.022;21.356;2023-11-19T06:59:58;99079.66;;;5.77;53.04
78309;BME280;67566;42.022;21.356;2023-11-19T07:02:24;99086.81;;;5.86;52.97
78309;BME280;67566;42.022;21.356;2023-11-19T07:04:50;99084.19;;;5.92;52.10
78309;BME280;67566;42.022;21.356;2023-11-19T07:07:16;99094.81;;;5.97;51.44
78309;BME280;67566;42.022;21.356;2023-11-19T07:09:41;99093.00;;;6.02;51.77
78309;BME280;67566;42.022;21.356;2023-11-19T07:12:08;99087.72;;;6.08;50.90
78309;BME280;67566;42.022;21.356;2023-11-19T07:14:33;99096.19;;;6.10;50.22
78309;BME280;67566;42.022;21.356;2023-11-19T07:16:59;99093.06;;;6.18;49.63
78309;BME280;67566;42.022;21.356;2023-11-19T07:19:25;99092.00;;;6.14;50.30
78309;BME280;67566;42.022;21.356;2023-11-19T07:21:51;99085.38;;;6.11;50.15
78309;BME280;67566;42.022;21.356;2023-11-19T07:24:18;99092.75;;;6.04;50.05
78309;BME280;67566;42.022;21.356;2023-11-19T07:26:44;99103.91;;;6.21;49.57
78309;BME280;67566;42.022;21.356;2023-11-19T07:29:09;99101.28;;;6.27;49.55
78309;BME280;67566;42.022;21.356;2023-11-19T07:31:35;99097.38;;;6.34;49.81
78309;BME280;67566;42.022;21.356;2023-11-19T07:34:01;99109.78;;;6.39;48.98
78309;BME280;67566;42.022;21.356;2023-11-19T07:36:26;99086.53;;;6.41;49.16
78309;BME280;67566;42.022;21.356;2023-11-19T07:38:52;99087.06;;;6.38;48.65
78309;BME280;67566;42.022;21.356;2023-11-19T07:41:18;99084.13;;;6.39;48.51
78309;BME280;67566;42.022;21.356;2023-11-19T07:43:45;99086.31;;;6.58;49.17
78309;BME280;67566;42.022;21.356;2023-11-19T07:46:12;99099.03;;;6.71;49.10
78309;BME280;67566;42.022;21.356;2023-11-19T07:48:41;99087.91;;;6.74;48.08
78309;BME280;67566;42.022;21.356;2023-11-19T07:51:07;99090.28;;;6.76;48.33
78309;BME280;67566;42.022;21.356;2023-11-19T07:53:33;99097.47;;;6.91;48.58
78309;BME280;67566;42.022;21.356;2023-11-19T07:56:00;99102.78;;;7.01;47.80
78309;BME280;67566;42.022;21.356;2023-11-19T07:58:25;99100.91;;;6.96;46.95
78309;BME280;67566;42.022;21.356;2023-11-19T08:00:51;99099.84;;;6.92;47.31
78309;BME280;67566;42.022;21.356;2023-11-19T08:03:17;99095.34;;;6.98;46.87
78309;BME280;67566;42.022;21.356;2023-11-19T08:05:47;99096.13;;;6.93;46.64
78309;BME280;67566;42.022;21.356;2023-11-19T08:08:12;99096.69;;;7.11;47.91
78309;BME280;67566;42.022;21.356;2023-11-19T08:10:41;99094.03;;;7.26;47.76
78309;BME280;67566;42.022;21.356;2023-11-19T08:13:07;99090.59;;;7.31;46.49
78309;BME280;67566;42.022;21.356;2023-11-19T08:15:33;99098.53;;;7.41;46.50
78309;BME280;67566;42.022;21.356;2023-11-19T08:17:58;99083.69;;;7.45;46.94
78309;BME280;67566;42.022;21.356;2023-11-19T08:20:24;99091.88;;;7.49;45.74
78309;BME280;67566;42.022;21.356;2023-11-19T08:22:49;99101.19;;;7.36;44.85
78309;BME280;67566;42.022;21.356;2023-11-19T08:25:15;99098.78;;;7.34;46.09
78309;BME280;67566;42.022;21.356;2023-11-19T08:27:40;99101.19;;;7.41;46.27
78309;BME280;67566;42.022;21.356;2023-11-19T08:30:06;99103.25;;;7.54;46.21
78309;BME280;67566;42.022;21.356;2023-11-19T08:32:32;99102.47;;;7.54;45.36
78309;BME280;67566;42.022;21.356;2023-11-19T08:34:58;99105.66;;;7.56;44.75
78309;BME280;67566;42.022;21.356;2023-11-19T08:37:23;99117.28;;;7.65;45.18
78309;BME280;67566;42.022;21.356;2023-11-19T08:39:49;99111.47;;;7.58;44.35
78309;BME280;67566;42.022;21.356;2023-11-19T08:42:16;99113.31;;;7.68;45.47
78309;BME280;67566;42.022;21.356;2023-11-19T08:44:42;99110.94;;;7.71;44.46
78309;BME280;67566;42.022;21.356;2023-11-19T08:47:12;99100.31;;;7.77;44.87
78309;BME280;67566;42.022;21.356;2023-11-19T08:49:39;99100.03;;;7.83;45.13
78309;BME280;67566;42.022;21.356;2023-11-19T08:52:05;99092.06;;;7.93;45.19
78309;BME280;67566;42.022;21.356;2023-11-19T08:54:34;99084.84;;;8.04;44.69
78309;BME280;67566;42.022;21.356;2023-11-19T08:56:59;99078.75;;;8.04;44.47
78309;BME280;67566;42.022;21.356;2023-11-19T08:59:25;99075.28;;;8.08;44.79
78309;BME280;67566;42.022;21.356;2023-11-19T09:01:51;99075.25;;;8.19;44.80
78309;BME280;67566;42.022;21.356;2023-11-19T09:04:16;99066.19;;;8.30;45.15
78309;BME280;67566;42.022;21.356;2023-11-19T09:06:42;99062.91;;;8.48;45.78
78309;BME280;67566;42.022;21.356;2023-11-19T09:09:08;99063.13;;;8.57;45.05
78309;BME280;67566;42.022;21.356;2023-11-19T09:11:35;99061.97;;;8.74;45.07
78309;BME280;67566;42.022;21.356;2023-11-19T09:14:00;99056.94;;;8.72;43.73
78309;BME280;67566;42.022;21.356;2023-11-19T09:16:26;99054.72;;;8.84;44.97
78309;BME280;67566;42.022;21.356;2023-11-19T09:18:51;99051.47;;;8.87;43.46
78309;BME280;67566;42.022;21.356;2023-11-19T09:21:16;99038.69;;;8.95;44.31
78309;BME280;67566;42.022;21.356;2023-11-19T09:23:43;99037.88;;;8.94;43.59
78309;BME280;67566;42.022;21.356;2023-11-19T09:26:09;99037.03;;;9.04;43.95
78309;BME280;67566;42.022;21.356;2023-11-19T09:28:37;99027.97;;;9.05;44.00
78309;BME280;67566;42.022;21.356;2023-11-19T09:31:03;99026.81;;;9.16;43.58
78309;BME280;67566;42.022;21.356;2023-11-19T09:33:31;99020.41;;;9.17;43.24
78309;BME280;67566;42.022;21.356;2023-11-19T09:35:56;99026.22;;;9.24;44.44
78309;BME280;67566;42.022;21.356;2023-11-19T09:38:23;99017.03;;;9.12;43.09
78309;BME280;67566;42.022;21.356;2023-11-19T09:40:48;99002.88;;;9.21;44.25
78309;BME280;67566;42.022;21.356;2023-11-19T09:43:15;99003.50;;;9.37;44.26
78309;BME280;67566;42.022;21.356;2023-11-19T09:45:49;98991.66;;;9.49;43.99
78309;BME280;67566;42.022;21.356;2023-11-19T09:48:19;98981.19;;;9.57;43.33
78309;BME280;67566;42.022;21.356;2023-11-19T09:50:48;98984.63;;;9.63;43.03
78309;BME280;67566;42.022;21.356;2023-11-19T09:53:14;98979.50;;;9.67;42.66
78309;BME280;67566;42.022;21.356;2023-11-19T09:55:40;98977.34;;;9.69;42.13
78309;BME280;67566;42.022;21.356;2023-11-19T09:58:07;98972.75;;;9.74;42.15
78309;BME280;67566;42.022;21.356;2023-11-19T10:00:33;98969.81;;;9.76;42.09
78309;BME280;67566;42.022;21.356;2023-11-19T10:02:59;98958.56;;;9.84;42.92
78309;BME280;67566;42.022;21.356;2023-11-19T10:05:25;98950.28;;;9.86;42.66
78309;BME280;67566;42.022;21.356;2023-11-19T10:07:52;98945.91;;;9.95;42.96
78309;BME280;67566;42.022;21.356;2023-11-19T10:10:17;98946.63;;;10.00;42.74
78309;BME280;67566;42.022;21.356;2023-11-19T10:12:47;98944.47;;;10.02;42.19
78309;BME280;67566;42.022;21.356;2023-11-19T10:15:22;98941.22;;;10.06;41.94
78309;BME280;67566;42.022;21.356;2023-11-19T10:17:50;98942.00;;;10.06;41.48
78309;BME280;67566;42.022;21.356;2023-11-19T10:20:15;98937.44;;;10.12;41.11
78309;BME280;67566;42.022;21.356;2023-11-19T10:22:41;98939.41;;;10.20;41.58
78309;BME280;67566;42.022;21.356;2023-11-19T10:25:33;98942.00;;;10.25;42.09
78309;BME280;67566;42.022;21.356;2023-11-19T10:27:59;98928.91;;;10.29;42.05
78309;BME280;67566;42.022;21.356;2023-11-19T10:30:30;98919.78;;;10.54;53.16
78309;BME280;67566;42.022;21.356;2023-11-19T10:35:31;98910.44;;;10.84;43.50
78309;BME280;67566;42.022;21.356;2023-11-19T10:37:59;98899.09;;;10.79;42.32
78309;BME280;67566;42.022;21.356;2023-11-19T10:40:37;98900.84;;;10.69;41.96
78309;BME280;67566;42.022;21.356;2023-11-19T10:43:03;98892.16;;;10.64;41.70
78309;BME280;67566;42.022;21.356;2023-11-19T10:45:29;98885.28;;;10.63;42.02
78309;BME280;67566;42.022;21.356;2023-11-19T10:47:55;98876.06;;;10.55;43.04
78309;BME280;67566;42.022;21.356;2023-11-19T10:50:22;98884.56;;;10.57;42.25
78309;BME280;67566;42.022;21.356;2023-11-19T10:52:52;98896.91;;;10.67;42.78
78309;BME280;67566;42.022;21.356;2023-11-19T10:55:25;98901.56;;;10.75;41.33
78309;BME280;67566;42.022;21.356;2023-11-19T10:57:52;98901.56;;;10.75;42.06
78309;BME280;67566;42.022;21.356;2023-11-19T11:00:22;98904.13;;;10.80;41.81
78309;BME280;67566;42.022;21.356;2023-11-19T11:02:54;98904.53;;;10.87;41.60
78309;BME280;67566;42.022;21.356;2023-11-19T11:05:22;98896.66;;;10.96;42.17
78309;BME280;67566;42.022;21.356;2023-11-19T11:07:48;98900.31;;;11.00;41.47
78309;BME280;67566;42.022;21.356;2023-11-19T11:10:16;98901.19;;;10.95;40.71
78309;BME280;67566;42.022;21.356;2023-11-19T11:12:42;98887.06;;;10.95;42.26
78309;BME280;67566;42.022;21.356;2023-11-19T11:15:11;98875.06;;;10.98;41.77
78309;BME280;67566;42.022;21.356;2023-11-19T11:17:41;98876.13;;;10.96;41.54
78309;BME280;67566;42.022;21.356;2023-11-19T11:20:09;98871.19;;;11.04;41.39
78309;BME280;67566;42.022;21.356;2023-11-19T11:22:49;98866.06;;;11.07;41.07
78309;BME280;67566;42.022;21.356;2023-11-19T11:28:01;98862.31;;;11.08;41.65
78309;BME280;67566;42.022;21.356;2023-11-19T11:33:16;98865.84;;;11.18;40.67
78309;BME280;67566;42.022;21.356;2023-11-19T11:35:55;98868.53;;;11.18;39.97
78309;BME280;67566;42.022;21.356;2023-11-19T11:38:27;98871.47;;;11.16;40.33
78309;BME280;67566;42.022;21.356;2023-11-19T11:41:21;98865.75;;;11.23;41.06
78309;BME280;67566;42.022;21.356;2023-11-19T11:43:54;98852.13;;;11.24;40.63
78309;BME280;67566;42.022;21.356;2023-11-19T11:49:00;98853.28;;;11.32;40.58
78309;BME280;67566;42.022;21.356;2023-11-19T11:57:13;98834.63;;;11.32;41.34
78309;BME280;67566;42.022;21.356;2023-11-19T11:59:49;98835.44;;;11.32;41.59
78309;BME280;67566;42.022;21.356;2023-11-19T12:02:17;98834.16;;;11.30;40.88
78309;BME280;67566;42.022;21.356;2023-11-19T12:04:51;98829.31;;;11.32;41.05
78309;BME280;67566;42.022;21.356;2023-11-19T12:07:20;98818.06;;;11.35;41.42
78309;BME280;67566;42.022;21.356;2023-11-19T12:09:57;98825.16;;;11.40;41.17
78309;BME280;67566;42.022;21.356;2023-11-19T12:12:32;98807.47;;;11.44;40.38
78309;BME280;67566;42.022;21.356;2023-11-19T12:20:05;98808.66;;;11.51;41.23
78309;BME280;67566;42.022;21.356;2023-11-19T12:22:41;98800.88;;;11.41;41.70
78309;BME280;67566;42.022;21.356;2023-11-19T12:25:08;98802.91;;;11.44;40.66
78309;BME280;67566;42.022;21.356;2023-11-19T12:27:35;98802.44;;;11.42;40.63
78309;BME280;67566;42.022;21.356;2023-11-19T12:30:02;98795.34;;;11.38;41.63
78309;BME280;67566;42.022;21.356;2023-11-19T12:32:50;98782.84;;;11.24;41.11
78309;BME280;67566;42.022;21.356;2023-11-19T12:35:16;98787.69;;;11.22;41.83
78309;BME280;67566;42.022;21.356;2023-11-19T12:37:43;98785.50;;;11.24;41.71
78309;BME280;67566;42.022;21.356;2023-11-19T12:40:15;98794.16;;;11.30;40.84
78309;BME280;67566;42.022;21.356;2023-11-19T12:42:45;98793.16;;;11.40;40.83
78309;BME280;67566;42.022;21.356;2023-11-19T12:45:11;98788.63;;;11.40;40.91
78309;BME280;67566;42.022;21.356;2023-11-19T12:47:38;98780.69;;;11.49;41.19
78309;BME280;67566;42.022;21.356;2023-11-19T12:50:04;98780.09;;;11.52;40.61
78309;BME280;67566;42.022;21.356;2023-11-19T12:52:30;98780.88;;;11.52;40.12
78309;BME280;67566;42.022;21.356;2023-11-19T12:54:55;98780.81;;;11.44;39.67
78309;BME280;67566;42.022;21.356;2023-11-19T12:57:36;98789.47;;;11.49;39.74
78309;BME280;67566;42.022;21.356;2023-11-19T13:00:02;98793.63;;;11.56;39.61
78309;BME280;67566;42.022;21.356;2023-11-19T13:02:48;98781.34;;;11.55;39.74
78309;BME280;67566;42.022;21.356;2023-11-19T13:05:27;98771.16;;;11.57;40.08
78309;BME280;67566;42.022;21.356;2023-11-19T13:08:06;98763.88;;;11.62;40.96
78309;BME280;67566;42.022;21.356;2023-11-19T13:10:33;98753.97;;;11.63;39.99
78309;BME280;67566;42.022;21.356;2023-11-19T13:13:06;98752.38;;;11.62;40.09
78309;BME280;67566;42.022;21.356;2023-11-19T13:15:34;98748.09;;;11.52;39.15
78309;BME280;67566;42.022;21.356;2023-11-19T13:18:00;98755.25;;;11.43;38.63
78309;BME280;67566;42.022;21.356;2023-11-19T13:20:26;98757.59;;;11.44;39.42
78309;BME280;67566;42.022;21.356;2023-11-19T13:23:02;98757.34;;;11.55;40.47